sensor_id;sensor_type;location;lat;lon;timestamp;P1;durP1;ratioP1;P2;durP2;ratioP2
55009;SDS011;40903;51.638;7.528;2022-10-31T00:01:55;14.13;;;7.80;;
55009;SDS011;40903;51.638;7.528;2022-10-31T00:04:21;10.83;;;8.50;;
55009;SDS011;40903;51.638;7.528;2022-10-31T00:06:46;10.67;;;8.47;;
55009;SDS011;40903;51.638;7.528;2022-10-31T00:09:11;11.60;;;8.40;;
55009;SDS011;40903;51.638;7.528;2022-10-31T00:11:37;13.27;;;9.20;;
55009;SDS011;40903;51.638;7.528;2022-10-31T00:14:02;12.73;;;8.53;;
55009;SDS011;40903;51.638;7.528;2022-10-31T00:16:28;14.07;;;9.37;;
55009;SDS011;40903;51.638;7.528;2022-10-31T00:18:55;12.53;;;8.33;;
55009;SDS011;40903;51.638;7.528;2022-10-31T00:21:22;13.50;;;9.27;;
55009;SDS011;40903;51.638;7.528;2022-10-31T00:23:47;11.43;;;8.77;;
55009;SDS011;40903;51.638;7.528;2022-10-31T00:26:13;10.57;;;8.30;;
55009;SDS011;40903;51.638;7.528;2022-10-31T00:28:39;11.30;;;7.67;;
55009;SDS011;40903;51.638;7.528;2022-10-31T00:31:05;9.77;;;7.43;;
55009;SDS011;40903;51.638;7.528;2022-10-31T00:33:33;12.23;;;8.87;;
55009;SDS011;40903;51.638;7.528;2022-10-31T00:35:59;13.40;;;9.33;;
55009;SDS011;40903;51.638;7.528;2022-10-31T00:38:24;13.47;;;8.27;;
55009;SDS011;40903;51.638;7.528;2022-10-31T00:40:50;14.63;;;8.83;;
55009;SDS011;40903;51.638;7.528;2022-10-31T00:43:15;11.33;;;8.50;;
55009;SDS011;40903;51.638;7.528;2022-10-31T00:45:41;10.17;;;7.90;;
55009;SDS011;40903;51.638;7.528;2022-10-31T00:48:07;11.80;;;7.63;;
55009;SDS011;40903;51.638;7.528;2022-10-31T00:50:33;14.33;;;8.60;;
55009;SDS011;40903;51.638;7.528;2022-10-31T00:52:58;12.00;;;8.40;;
55009;SDS011;40903;51.638;7.528;2022-10-31T00:55:23;10.70;;;8.17;;
55009;SDS011;40903;51.638;7.528;2022-10-31T00:57:49;14.83;;;9.60;;
55009;SDS011;40903;51.638;7.528;2022-10-31T01:00:14;11.43;;;8.47;;
55009;SDS011;40903;51.638;7.528;2022-10-31T01:02:40;11.93;;;7.97;;
55009;SDS011;40903;51.638;7.528;2022-10-31T01:05:05;12.47;;;7.93;;
55009;SDS011;40903;51.638;7.528;2022-10-31T01:07:31;12.17;;;8.07;;
55009;SDS011;40903;51.638;7.528;2022-10-31T01:09:56;10.50;;;8.40;;
55009;SDS011;40903;51.638;7.528;2022-10-31T01:12:21;11.67;;;8.37;;
55009;SDS011;40903;51.638;7.528;2022-10-31T01:14:47;9.73;;;7.70;;
55009;SDS011;40903;51.638;7.528;2022-10-31T01:17:12;12.63;;;8.33;;
55009;SDS011;40903;51.638;7.528;2022-10-31T01:19:38;9.70;;;7.93;;
55009;SDS011;40903;51.638;7.528;2022-10-31T01:22:04;10.40;;;7.47;;
55009;SDS011;40903;51.638;7.528;2022-10-31T01:24:29;12.97;;;8.07;;
55009;SDS011;40903;51.638;7.528;2022-10-31T01:26:55;8.87;;;7.07;;
55009;SDS011;40903;51.638;7.528;2022-10-31T01:29:20;10.60;;;7.77;;
55009;SDS011;40903;51.638;7.528;2022-10-31T01:31:45;10.40;;;8.37;;
55009;SDS011;40903;51.638;7.528;2022-10-31T01:34:15;12.47;;;9.07;;
55009;SDS011;40903;51.638;7.528;2022-10-31T01:36:42;12.93;;;8.63;;
55009;SDS011;40903;51.638;7.528;2022-10-31T01:39:13;14.67;;;9.17;;
55009;SDS011;40903;51.638;7.528;2022-10-31T01:41:44;10.90;;;8.20;;
55009;SDS011;40903;51.638;7.528;2022-10-31T01:52:23;10.80;;;8.10;;
55009;SDS011;40903;51.638;7.528;2022-10-31T01:55:05;12.03;;;8.50;;
55009;SDS011;40903;51.638;7.528;2022-10-31T01:57:41;14.33;;;8.97;;
55009;SDS011;40903;51.638;7.528;2022-10-31T02:00:11;11.53;;;8.13;;
55009;SDS011;40903;51.638;7.528;2022-10-31T02:02:37;11.07;;;8.00;;
55009;SDS011;40903;51.638;7.528;2022-10-31T02:05:04;10.60;;;8.30;;
55009;SDS011;40903;51.638;7.528;2022-10-31T02:07:37;11.60;;;7.87;;
55009;SDS011;40903;51.638;7.528;2022-10-31T02:10:10;13.80;;;8.93;;
55009;SDS011;40903;51.638;7.528;2022-10-31T02:12:36;16.17;;;11.13;;
55009;SDS011;40903;51.638;7.528;2022-10-31T02:15:03;14.00;;;10.40;;
55009;SDS011;40903;51.638;7.528;2022-10-31T02:17:29;16.90;;;10.17;;
55009;SDS011;40903;51.638;7.528;2022-10-31T02:20:13;14.80;;;10.10;;
55009;SDS011;40903;51.638;7.528;2022-10-31T02:28:32;14.13;;;10.20;;
55009;SDS011;40903;51.638;7.528;2022-10-31T02:31:20;14.43;;;10.27;;
55009;SDS011;40903;51.638;7.528;2022-10-31T02:38:58;12.83;;;9.47;;
55009;SDS011;40903;51.638;7.528;2022-10-31T02:47:49;13.00;;;9.87;;
55009;SDS011;40903;51.638;7.528;2022-10-31T02:50:22;12.50;;;9.83;;
55009;SDS011;40903;51.638;7.528;2022-10-31T02:53:00;13.77;;;9.50;;
55009;SDS011;40903;51.638;7.528;2022-10-31T02:57:51;12.50;;;9.03;;
55009;SDS011;40903;51.638;7.528;2022-10-31T03:00:44;13.97;;;8.50;;
55009;SDS011;40903;51.638;7.528;2022-10-31T03:03:20;15.67;;;9.50;;
55009;SDS011;40903;51.638;7.528;2022-10-31T03:06:09;13.63;;;9.90;;
55009;SDS011;40903;51.638;7.528;2022-10-31T03:08:44;10.97;;;8.77;;
55009;SDS011;40903;51.638;7.528;2022-10-31T03:11:18;12.30;;;8.70;;
55009;SDS011;40903;51.638;7.528;2022-10-31T03:13:53;14.90;;;8.87;;
55009;SDS011;40903;51.638;7.528;2022-10-31T03:19:08;15.80;;;9.50;;
55009;SDS011;40903;51.638;7.528;2022-10-31T03:21:39;13.37;;;9.83;;
55009;SDS011;40903;51.638;7.528;2022-10-31T03:24:08;13.67;;;9.77;;
55009;SDS011;40903;51.638;7.528;2022-10-31T03:26:35;11.43;;;8.27;;
55009;SDS011;40903;51.638;7.528;2022-10-31T03:29:05;11.93;;;9.03;;
55009;SDS011;40903;51.638;7.528;2022-10-31T03:31:43;14.07;;;9.40;;
55009;SDS011;40903;51.638;7.528;2022-10-31T03:34:36;11.30;;;9.07;;
55009;SDS011;40903;51.638;7.528;2022-10-31T03:37:05;14.80;;;9.80;;
55009;SDS011;40903;51.638;7.528;2022-10-31T03:39:35;17.80;;;11.00;;
55009;SDS011;40903;51.638;7.528;2022-10-31T03:42:11;12.73;;;9.93;;
55009;SDS011;40903;51.638;7.528;2022-10-31T03:44:41;14.53;;;9.63;;
55009;SDS011;40903;51.638;7.528;2022-10-31T03:47:10;13.43;;;9.27;;
55009;SDS011;40903;51.638;7.528;2022-10-31T03:49:36;14.57;;;10.40;;
55009;SDS011;40903;51.638;7.528;2022-10-31T03:52:11;14.03;;;9.93;;
55009;SDS011;40903;51.638;7.528;2022-10-31T03:54:51;16.63;;;9.83;;
55009;SDS011;40903;51.638;7.528;2022-10-31T03:59:51;13.40;;;10.03;;
55009;SDS011;40903;51.638;7.528;2022-10-31T04:02:25;14.77;;;9.47;;
55009;SDS011;40903;51.638;7.528;2022-10-31T04:04:54;13.37;;;9.63;;
55009;SDS011;40903;51.638;7.528;2022-10-31T04:07:21;12.17;;;10.07;;
55009;SDS011;40903;51.638;7.528;2022-10-31T04:09:50;11.93;;;9.27;;
55009;SDS011;40903;51.638;7.528;2022-10-31T04:12:17;13.37;;;9.87;;
55009;SDS011;40903;51.638;7.528;2022-10-31T04:14:44;15.87;;;9.60;;
55009;SDS011;40903;51.638;7.528;2022-10-31T04:17:13;11.87;;;9.27;;
55009;SDS011;40903;51.638;7.528;2022-10-31T04:19:42;16.47;;;10.17;;
55009;SDS011;40903;51.638;7.528;2022-10-31T04:22:08;13.03;;;8.87;;
55009;SDS011;40903;51.638;7.528;2022-10-31T04:24:33;14.40;;;9.80;;
55009;SDS011;40903;51.638;7.528;2022-10-31T04:26:58;12.63;;;9.97;;
55009;SDS011;40903;51.638;7.528;2022-10-31T04:29:24;14.70;;;10.37;;
55009;SDS011;40903;51.638;7.528;2022-10-31T04:31:49;13.07;;;9.50;;
55009;SDS011;40903;51.638;7.528;2022-10-31T04:34:14;12.83;;;8.80;;
55009;SDS011;40903;51.638;7.528;2022-10-31T04:36:39;13.90;;;9.77;;
55009;SDS011;40903;51.638;7.528;2022-10-31T04:39:05;15.00;;;9.93;;
55009;SDS011;40903;51.638;7.528;2022-10-31T04:41:30;14.10;;;9.60;;
55009;SDS011;40903;51.638;7.528;2022-10-31T04:43:55;19.47;;;9.90;;
55009;SDS011;40903;51.638;7.528;2022-10-31T04:46:20;12.03;;;9.77;;
55009;SDS011;40903;51.638;7.528;2022-10-31T04:48:46;13.37;;;10.57;;
55009;SDS011;40903;51.638;7.528;2022-10-31T04:51:11;12.33;;;9.20;;
55009;SDS011;40903;51.638;7.528;2022-10-31T04:53:37;13.90;;;9.43;;
55009;SDS011;40903;51.638;7.528;2022-10-31T04:56:03;14.17;;;9.67;;
55009;SDS011;40903;51.638;7.528;2022-10-31T04:58:28;14.17;;;10.20;;
55009;SDS011;40903;51.638;7.528;2022-10-31T05:00:54;16.00;;;9.60;;
55009;SDS011;40903;51.638;7.528;2022-10-31T05:03:20;11.90;;;8.67;;
55009;SDS011;40903;51.638;7.528;2022-10-31T05:05:46;15.60;;;10.90;;
55009;SDS011;40903;51.638;7.528;2022-10-31T05:08:11;13.90;;;10.30;;
55009;SDS011;40903;51.638;7.528;2022-10-31T05:10:36;13.13;;;9.63;;
55009;SDS011;40903;51.638;7.528;2022-10-31T05:13:02;13.93;;;10.70;;
55009;SDS011;40903;51.638;7.528;2022-10-31T05:15:29;14.53;;;10.23;;
55009;SDS011;40903;51.638;7.528;2022-10-31T05:17:55;16.13;;;9.53;;
55009;SDS011;40903;51.638;7.528;2022-10-31T05:20:22;12.50;;;9.37;;
55009;SDS011;40903;51.638;7.528;2022-10-31T05:22:49;15.07;;;10.40;;
55009;SDS011;40903;51.638;7.528;2022-10-31T05:25:16;16.97;;;10.57;;
55009;SDS011;40903;51.638;7.528;2022-10-31T05:27:43;14.40;;;10.87;;
55009;SDS011;40903;51.638;7.528;2022-10-31T05:30:11;15.27;;;10.23;;
55009;SDS011;40903;51.638;7.528;2022-10-31T05:32:42;14.70;;;10.17;;
55009;SDS011;40903;51.638;7.528;2022-10-31T05:35:10;15.13;;;10.63;;
55009;SDS011;40903;51.638;7.528;2022-10-31T05:37:37;12.87;;;9.90;;
55009;SDS011;40903;51.638;7.528;2022-10-31T05:40:03;14.27;;;10.00;;
55009;SDS011;40903;51.638;7.528;2022-10-31T05:42:29;13.57;;;9.60;;
55009;SDS011;40903;51.638;7.528;2022-10-31T05:44:55;15.07;;;10.17;;
55009;SDS011;40903;51.638;7.528;2022-10-31T05:47:20;17.50;;;9.83;;
55009;SDS011;40903;51.638;7.528;2022-10-31T05:49:45;13.97;;;9.57;;
55009;SDS011;40903;51.638;7.528;2022-10-31T05:52:12;12.23;;;9.57;;
55009;SDS011;40903;51.638;7.528;2022-10-31T05:54:38;10.83;;;8.93;;
55009;SDS011;40903;51.638;7.528;2022-10-31T05:57:03;11.60;;;9.17;;
55009;SDS011;40903;51.638;7.528;2022-10-31T05:59:29;12.10;;;9.37;;
55009;SDS011;40903;51.638;7.528;2022-10-31T06:01:54;11.83;;;8.73;;
55009;SDS011;40903;51.638;7.528;2022-10-31T06:04:19;16.77;;;10.13;;
55009;SDS011;40903;51.638;7.528;2022-10-31T06:06:45;14.97;;;9.37;;
55009;SDS011;40903;51.638;7.528;2022-10-31T06:09:10;10.23;;;8.33;;
55009;SDS011;40903;51.638;7.528;2022-10-31T06:11:36;15.63;;;10.47;;
55009;SDS011;40903;51.638;7.528;2022-10-31T06:14:01;12.67;;;9.40;;
55009;SDS011;40903;51.638;7.528;2022-10-31T06:16:27;12.40;;;9.47;;
55009;SDS011;40903;51.638;7.528;2022-10-31T06:18:52;12.87;;;9.87;;
55009;SDS011;40903;51.638;7.528;2022-10-31T06:21:17;13.23;;;9.63;;
55009;SDS011;40903;51.638;7.528;2022-10-31T06:23:42;12.53;;;9.40;;
55009;SDS011;40903;51.638;7.528;2022-10-31T06:26:08;12.23;;;9.90;;
55009;SDS011;40903;51.638;7.528;2022-10-31T06:28:33;15.87;;;10.23;;
55009;SDS011;40903;51.638;7.528;2022-10-31T06:30:58;16.77;;;9.07;;
55009;SDS011;40903;51.638;7.528;2022-10-31T06:33:24;12.20;;;8.77;;
55009;SDS011;40903;51.638;7.528;2022-10-31T06:35:49;12.40;;;8.80;;
55009;SDS011;40903;51.638;7.528;2022-10-31T06:38:14;15.03;;;9.17;;
55009;SDS011;40903;51.638;7.528;2022-10-31T06:40:39;13.80;;;9.10;;
55009;SDS011;40903;51.638;7.528;2022-10-31T06:43:06;12.30;;;9.10;;
55009;SDS011;40903;51.638;7.528;2022-10-31T06:45:31;11.97;;;9.30;;
55009;SDS011;40903;51.638;7.528;2022-10-31T06:47:56;13.23;;;9.10;;
55009;SDS011;40903;51.638;7.528;2022-10-31T06:50:22;12.23;;;9.17;;
55009;SDS011;40903;51.638;7.528;2022-10-31T06:52:54;11.73;;;8.83;;
55009;SDS011;40903;51.638;7.528;2022-10-31T06:55:21;11.67;;;9.30;;
55009;SDS011;40903;51.638;7.528;2022-10-31T07:00:17;12.33;;;9.57;;
55009;SDS011;40903;51.638;7.528;2022-10-31T07:02:42;12.10;;;9.77;;
55009;SDS011;40903;51.638;7.528;2022-10-31T07:05:08;14.23;;;10.33;;
55009;SDS011;40903;51.638;7.528;2022-10-31T07:07:33;12.77;;;9.83;;
55009;SDS011;40903;51.638;7.528;2022-10-31T07:09:58;12.27;;;9.77;;
55009;SDS011;40903;51.638;7.528;2022-10-31T07:12:24;13.57;;;9.70;;
55009;SDS011;40903;51.638;7.528;2022-10-31T07:14:49;13.50;;;10.03;;
55009;SDS011;40903;51.638;7.528;2022-10-31T07:17:14;13.10;;;10.60;;
55009;SDS011;40903;51.638;7.528;2022-10-31T07:19:40;15.43;;;10.80;;
55009;SDS011;40903;51.638;7.528;2022-10-31T07:22:05;16.77;;;9.93;;
55009;SDS011;40903;51.638;7.528;2022-10-31T07:24:31;15.57;;;10.57;;
55009;SDS011;40903;51.638;7.528;2022-10-31T07:26:56;15.07;;;10.67;;
55009;SDS011;40903;51.638;7.528;2022-10-31T07:29:21;12.50;;;10.23;;
55009;SDS011;40903;51.638;7.528;2022-10-31T07:31:46;13.47;;;10.80;;
55009;SDS011;40903;51.638;7.528;2022-10-31T07:34:12;16.13;;;10.33;;
55009;SDS011;40903;51.638;7.528;2022-10-31T07:36:37;12.37;;;9.93;;
55009;SDS011;40903;51.638;7.528;2022-10-31T07:39:02;13.83;;;10.40;;
55009;SDS011;40903;51.638;7.528;2022-10-31T07:41:28;19.63;;;11.70;;
55009;SDS011;40903;51.638;7.528;2022-10-31T07:43:53;15.07;;;11.30;;
55009;SDS011;40903;51.638;7.528;2022-10-31T07:46:18;18.07;;;11.37;;
55009;SDS011;40903;51.638;7.528;2022-10-31T07:48:44;12.63;;;10.30;;
55009;SDS011;40903;51.638;7.528;2022-10-31T07:51:09;13.60;;;10.63;;
55009;SDS011;40903;51.638;7.528;2022-10-31T07:53:34;15.53;;;10.07;;
55009;SDS011;40903;51.638;7.528;2022-10-31T07:55:59;11.90;;;10.20;;
55009;SDS011;40903;51.638;7.528;2022-10-31T07:58:25;12.10;;;9.90;;
55009;SDS011;40903;51.638;7.528;2022-10-31T08:00:50;14.00;;;9.53;;
55009;SDS011;40903;51.638;7.528;2022-10-31T08:03:16;12.33;;;10.10;;
55009;SDS011;40903;51.638;7.528;2022-10-31T08:05:43;13.57;;;10.87;;
55009;SDS011;40903;51.638;7.528;2022-10-31T08:08:11;14.23;;;10.27;;
55009;SDS011;40903;51.638;7.528;2022-10-31T08:10:38;14.07;;;10.70;;
55009;SDS011;40903;51.638;7.528;2022-10-31T08:13:05;12.10;;;9.57;;
55009;SDS011;40903;51.638;7.528;2022-10-31T08:15:35;13.90;;;11.33;;
55009;SDS011;40903;51.638;7.528;2022-10-31T08:18:04;13.13;;;10.33;;
55009;SDS011;40903;51.638;7.528;2022-10-31T08:20:30;14.57;;;10.13;;
55009;SDS011;40903;51.638;7.528;2022-10-31T08:22:59;15.87;;;11.83;;
55009;SDS011;40903;51.638;7.528;2022-10-31T08:25:27;17.23;;;12.47;;
55009;SDS011;40903;51.638;7.528;2022-10-31T08:27:55;16.73;;;12.23;;
55009;SDS011;40903;51.638;7.528;2022-10-31T08:30:22;18.17;;;12.87;;
